MSR9901 BIKF-HECA
Flight info
| Callsign | MSR9901 |
|---|---|
| Flight time | 7h 18m |
| Altitude | 35000 |
| Route | OSKUM3A OSKUM DCT MIKLA DCT GUNPA/N0459F350 DCT KLONN DCT KARLI P613 BAVTA P992 ATTUS DCT BUMIL DCT HDO DCT BITSI/N0450F370 DCT XOMBA DCT KEROP DCT DONIV DCT NISVA DCT NIKTI UN127 IMR UG80 BANRO UN128 RDS UL995 VANZA DCT RASDA A16 MERPI |
| Aircraft | B38M/M-SDE1FGHILORVWXY/HB1 |
Departure
| Time | 2026-05-04 03:00 |
|---|---|
| Airport | Keflavik International Airport (BIKF) |
Arrival
| Time | 2026-05-04 10:19 |
|---|---|
| Airport | Cairo International Airport (HECA) |
| Time | Latitude | Longitude | Altitude | Speed | Heading |
|---|---|---|---|---|---|
| 2026-05-04 02:39 | 63.99283 | -22.62896 | 140 ft | 0 kts | 268° |
| 2026-05-04 02:50 | 63.99284 | -22.62882 | 139 ft | 2 kts | 268° |
| 2026-05-04 02:50 | 63.99284 | -22.62845 | 153 ft | 2 kts | 268° |
| 2026-05-04 02:50 | 63.99285 | -22.62808 | 148 ft | 2 kts | 262° |
| 2026-05-04 02:51 | 63.99289 | -22.62772 | 143 ft | 2 kts | 246° |
| 2026-05-04 02:51 | 63.99299 | -22.62747 | 145 ft | 0 kts | 178° |
| 2026-05-04 02:52 | 63.99298 | -22.62747 | 146 ft | 0 kts | 176° |
| 2026-05-04 02:53 | 63.99296 | -22.62747 | 143 ft | 2 kts | 176° |
| 2026-05-04 02:53 | 63.99245 | -22.62697 | 145 ft | 12 kts | 148° |
| 2026-05-04 02:53 | 63.99203 | -22.62678 | 145 ft | 4 kts | 184° |
| 2026-05-04 02:53 | 63.99177 | -22.62638 | 145 ft | 7 kts | 111° |
| 2026-05-04 02:54 | 63.99172 | -22.62407 | 145 ft | 21 kts | 90° |
| 2026-05-04 02:54 | 63.99173 | -22.62059 | 145 ft | 19 kts | 89° |
| 2026-05-04 02:54 | 63.99173 | -22.61737 | 149 ft | 21 kts | 90° |
| 2026-05-04 02:54 | 63.99173 | -22.61514 | 154 ft | 20 kts | 89° |
| 2026-05-04 02:55 | 63.99171 | -22.61012 | 165 ft | 14 kts | 106° |
| 2026-05-04 02:55 | 63.99092 | -22.60938 | 169 ft | 13 kts | 180° |
| 2026-05-04 02:55 | 63.98982 | -22.60939 | 173 ft | 18 kts | 180° |
| 2026-05-04 02:56 | 63.98835 | -22.60938 | 169 ft | 24 kts | 180° |
| 2026-05-04 02:56 | 63.98652 | -22.60939 | 169 ft | 28 kts | 180° |
| 2026-05-04 02:56 | 63.98452 | -22.60941 | 171 ft | 30 kts | 180° |
| 2026-05-04 02:56 | 63.98229 | -22.60941 | 167 ft | 34 kts | 180° |
| 2026-05-04 02:57 | 63.97989 | -22.60940 | 171 ft | 35 kts | 180° |
| 2026-05-04 02:57 | 63.97734 | -22.60941 | 172 ft | 38 kts | 180° |
| 2026-05-04 02:57 | 63.97470 | -22.60941 | 168 ft | 36 kts | 180° |
| 2026-05-04 02:57 | 63.97204 | -22.60940 | 160 ft | 32 kts | 180° |
| 2026-05-04 02:58 | 63.97014 | -22.60941 | 153 ft | 28 kts | 180° |
| 2026-05-04 02:58 | 63.96800 | -22.60941 | 145 ft | 28 kts | 180° |
| 2026-05-04 02:58 | 63.96604 | -22.60942 | 138 ft | 26 kts | 180° |
| 2026-05-04 02:58 | 63.96471 | -22.60896 | 138 ft | 15 kts | 129° |
| 2026-05-04 02:59 | 63.96460 | -22.60735 | 143 ft | 8 kts | 91° |
| 2026-05-04 02:59 | 63.96461 | -22.60616 | 146 ft | 8 kts | 83° |
| 2026-05-04 02:59 | 63.96502 | -22.60545 | 148 ft | 8 kts | 4° |
| 2026-05-04 02:59 | 63.96570 | -22.60542 | 150 ft | 20 kts | 0° |
| 2026-05-04 03:00 | 63.97057 | -22.60543 | 163 ft | 117 kts | 359° |
| 2026-05-04 03:00 | 63.98104 | -22.60553 | 382 ft | 179 kts | 359° |
| 2026-05-04 03:00 | 63.99534 | -22.60517 | 1000 ft | 227 kts | 359° |
| 2026-05-04 03:00 | 64.01171 | -22.60393 | 2375 ft | 231 kts | 0° |
| 2026-05-04 03:01 | 64.02688 | -22.60378 | 4175 ft | 207 kts | 356° |
| 2026-05-04 03:01 | 64.04108 | -22.60369 | 5521 ft | 211 kts | 4° |
| 2026-05-04 03:01 | 64.05520 | -22.58867 | 6208 ft | 244 kts | 39° |
| 2026-05-04 03:01 | 64.06329 | -22.55426 | 7347 ft | 256 kts | 73° |
| 2026-05-04 03:02 | 64.06377 | -22.51231 | 8377 ft | 270 kts | 89° |
| 2026-05-04 03:02 | 64.06332 | -22.46841 | 9220 ft | 287 kts | 86° |
| 2026-05-04 03:02 | 64.06189 | -22.42135 | 10003 ft | 310 kts | 101° |
| 2026-05-04 03:02 | 64.05300 | -22.37505 | 10696 ft | 330 kts | 119° |
| 2026-05-04 03:03 | 64.04128 | -22.32810 | 11284 ft | 351 kts | 118° |
| 2026-05-04 03:03 | 64.02896 | -22.27836 | 11965 ft | 368 kts | 119° |
| 2026-05-04 03:03 | 64.01605 | -22.22650 | 12745 ft | 380 kts | 120° |
| 2026-05-04 03:03 | 64.00276 | -22.17330 | 13562 ft | 392 kts | 120° |
| 2026-05-04 03:04 | 63.98908 | -22.11870 | 14355 ft | 401 kts | 121° |
| 2026-05-04 03:04 | 63.97506 | -22.06290 | 15168 ft | 409 kts | 121° |
| 2026-05-04 03:04 | 63.96083 | -22.00635 | 15993 ft | 416 kts | 121° |
| 2026-05-04 03:04 | 63.94627 | -21.94864 | 16775 ft | 423 kts | 121° |
| 2026-05-04 03:05 | 63.93153 | -21.89035 | 17667 ft | 428 kts | 120° |
| 2026-05-04 03:05 | 63.91650 | -21.83108 | 18433 ft | 436 kts | 120° |
| 2026-05-04 03:05 | 63.90123 | -21.77103 | 19108 ft | 441 kts | 121° |
| 2026-05-04 03:05 | 63.88582 | -21.71065 | 19814 ft | 446 kts | 121° |
| 2026-05-04 03:06 | 63.87012 | -21.64929 | 20517 ft | 450 kts | 121° |
| 2026-05-04 03:06 | 63.85450 | -21.58837 | 21211 ft | 455 kts | 121° |
| 2026-05-04 03:06 | 63.83850 | -21.52618 | 21894 ft | 460 kts | 121° |
| 2026-05-04 03:06 | 63.82231 | -21.46338 | 22629 ft | 465 kts | 121° |
| 2026-05-04 03:07 | 63.80579 | -21.39952 | 23186 ft | 473 kts | 122° |
| 2026-05-04 03:07 | 63.78893 | -21.33453 | 23762 ft | 478 kts | 122° |
| 2026-05-04 03:07 | 63.77243 | -21.26826 | 24299 ft | 483 kts | 115° |
| 2026-05-04 03:07 | 63.76245 | -21.19678 | 24896 ft | 483 kts | 98° |
| 2026-05-04 03:08 | 63.75684 | -21.12070 | 25405 ft | 487 kts | 97° |
| 2026-05-04 03:08 | 63.75164 | -21.04566 | 25960 ft | 488 kts | 96° |
| 2026-05-04 03:08 | 63.74661 | -20.96995 | 26625 ft | 488 kts | 96° |
| 2026-05-04 03:08 | 63.74167 | -20.89374 | 27105 ft | 493 kts | 96° |
| 2026-05-04 03:09 | 63.73673 | -20.81689 | 27637 ft | 496 kts | 96° |
| 2026-05-04 03:09 | 63.73175 | -20.73936 | 28149 ft | 499 kts | 96° |
| 2026-05-04 03:09 | 63.72670 | -20.66155 | 28647 ft | 502 kts | 96° |
| 2026-05-04 03:09 | 63.72156 | -20.58315 | 29141 ft | 506 kts | 97° |
| 2026-05-04 03:10 | 63.71637 | -20.50440 | 29659 ft | 510 kts | 96° |
| 2026-05-04 03:10 | 63.71441 | -20.42484 | 29977 ft | 511 kts | 82° |
| 2026-05-04 03:10 | 63.71869 | -20.34485 | 30285 ft | 514 kts | 79° |
| 2026-05-04 03:10 | 63.72279 | -20.26426 | 30697 ft | 517 kts | 79° |
| 2026-05-04 03:11 | 63.72707 | -20.18349 | 31111 ft | 519 kts | 79° |
| 2026-05-04 03:11 | 63.73148 | -20.10238 | 31512 ft | 521 kts | 78° |
| 2026-05-04 03:11 | 63.73593 | -20.02105 | 31907 ft | 523 kts | 78° |
| 2026-05-04 03:11 | 63.74037 | -19.93932 | 32306 ft | 525 kts | 79° |
| 2026-05-04 03:12 | 63.74478 | -19.85743 | 32697 ft | 528 kts | 79° |
| 2026-05-04 03:12 | 63.74916 | -19.77498 | 33111 ft | 529 kts | 79° |
| 2026-05-04 03:12 | 63.75350 | -19.69245 | 33659 ft | 528 kts | 78° |
| 2026-05-04 03:12 | 63.75779 | -19.60988 | 34086 ft | 529 kts | 78° |
| 2026-05-04 03:13 | 63.76203 | -19.52726 | 34521 ft | 528 kts | 79° |
| 2026-05-04 03:13 | 63.76621 | -19.44495 | 34968 ft | 526 kts | 79° |
| 2026-05-04 03:13 | 63.77034 | -19.36278 | 35407 ft | 525 kts | 79° |
| 2026-05-04 03:13 | 63.77434 | -19.28212 | 35862 ft | 523 kts | 79° |
| 2026-05-04 03:14 | 63.77836 | -19.20023 | 36326 ft | 522 kts | 79° |
| 2026-05-04 03:14 | 63.78234 | -19.11838 | 36774 ft | 521 kts | 79° |
| 2026-05-04 03:14 | 63.78624 | -19.03684 | 37225 ft | 519 kts | 80° |
| 2026-05-04 03:14 | 63.79009 | -18.95544 | 37696 ft | 518 kts | 80° |
| 2026-05-04 03:15 | 63.79388 | -18.87452 | 38097 ft | 518 kts | 80° |
| 2026-05-04 03:15 | 63.79761 | -18.79367 | 38478 ft | 517 kts | 80° |
| 2026-05-04 03:15 | 63.80130 | -18.71283 | 38833 ft | 516 kts | 80° |
| 2026-05-04 03:15 | 63.80493 | -18.63220 | 39136 ft | 515 kts | 80° |
| 2026-05-04 03:16 | 63.80847 | -18.55269 | 39416 ft | 514 kts | 81° |
| 2026-05-04 03:16 | 63.81201 | -18.47215 | 39704 ft | 513 kts | 81° |
| 2026-05-04 03:16 | 63.81553 | -18.39082 | 39988 ft | 512 kts | 81° |
| 2026-05-04 03:16 | 63.81893 | -18.31146 | 40244 ft | 511 kts | 81° |
| 2026-05-04 03:17 | 63.82229 | -18.23192 | 40494 ft | 509 kts | 81° |
| 2026-05-04 03:17 | 63.82561 | -18.15206 | 40781 ft | 508 kts | 81° |
| 2026-05-04 03:17 | 63.82890 | -18.07219 | 40966 ft | 509 kts | 81° |
| 2026-05-04 03:18 | 63.83533 | -17.91253 | 41019 ft | 507 kts | 82° |
| 2026-05-04 03:18 | 63.84161 | -17.75318 | 41017 ft | 507 kts | 82° |
| 2026-05-04 03:19 | 63.84714 | -17.59408 | 41002 ft | 509 kts | 88° |
| 2026-05-04 03:19 | 63.84314 | -17.51530 | 41008 ft | 509 kts | 101° |
| 2026-05-04 03:19 | 63.83584 | -17.43561 | 41024 ft | 511 kts | 99° |
| 2026-05-04 03:20 | 63.82189 | -17.27847 | 41029 ft | 512 kts | 100° |
| 2026-05-04 03:20 | 63.80735 | -17.11934 | 41017 ft | 512 kts | 100° |
| 2026-05-04 03:21 | 63.79274 | -16.96134 | 41025 ft | 513 kts | 100° |
| 2026-05-04 03:21 | 63.78048 | -16.83028 | 41023 ft | 513 kts | 100° |
| 2026-05-04 03:22 | 63.76554 | -16.67244 | 41020 ft | 513 kts | 101° |
| 2026-05-04 03:22 | 63.75047 | -16.51518 | 41023 ft | 513 kts | 101° |
| 2026-05-04 03:23 | 63.73517 | -16.35751 | 41023 ft | 513 kts | 101° |
| 2026-05-04 03:23 | 63.71971 | -16.20011 | 41031 ft | 513 kts | 101° |
| 2026-05-04 03:24 | 63.70409 | -16.04296 | 41025 ft | 513 kts | 101° |
| 2026-05-04 03:24 | 63.68843 | -15.88737 | 41024 ft | 513 kts | 101° |
| 2026-05-04 03:25 | 63.67248 | -15.73063 | 41024 ft | 513 kts | 101° |
| 2026-05-04 03:25 | 63.65633 | -15.57395 | 41044 ft | 513 kts | 102° |
| 2026-05-04 03:26 | 63.64005 | -15.41771 | 41018 ft | 514 kts | 102° |
| 2026-05-04 03:26 | 63.62352 | -15.26095 | 41022 ft | 514 kts | 102° |
| 2026-05-04 03:27 | 63.60685 | -15.10460 | 41025 ft | 514 kts | 102° |
| 2026-05-04 03:27 | 63.58999 | -14.94826 | 41021 ft | 514 kts | 102° |
| 2026-05-04 03:28 | 63.57311 | -14.79352 | 41013 ft | 514 kts | 102° |
| 2026-05-04 03:28 | 63.55585 | -14.63700 | 41021 ft | 514 kts | 102° |
| 2026-05-04 03:29 | 63.53851 | -14.48150 | 41025 ft | 514 kts | 102° |
| 2026-05-04 03:29 | 63.52099 | -14.32598 | 41023 ft | 514 kts | 103° |
| 2026-05-04 03:30 | 63.50331 | -14.17085 | 41021 ft | 514 kts | 103° |
| 2026-05-04 03:30 | 63.48546 | -14.01582 | 41021 ft | 514 kts | 103° |
| 2026-05-04 03:31 | 63.46751 | -13.86157 | 41047 ft | 514 kts | 103° |
| 2026-05-04 03:31 | 63.44935 | -13.70724 | 41019 ft | 513 kts | 103° |
| 2026-05-04 03:32 | 63.43104 | -13.55314 | 41024 ft | 513 kts | 103° |
| 2026-05-04 03:32 | 63.41254 | -13.39905 | 40995 ft | 513 kts | 103° |
| 2026-05-04 03:33 | 63.39387 | -13.24513 | 41026 ft | 515 kts | 103° |
| 2026-05-04 03:33 | 63.37498 | -13.09098 | 41020 ft | 514 kts | 104° |
| 2026-05-04 03:34 | 63.35602 | -12.93777 | 41022 ft | 513 kts | 104° |
| 2026-05-04 03:34 | 63.33686 | -12.78448 | 41021 ft | 513 kts | 104° |
| 2026-05-04 03:35 | 63.31755 | -12.63156 | 41021 ft | 513 kts | 104° |
| 2026-05-04 03:35 | 63.29808 | -12.47877 | 41021 ft | 513 kts | 104° |
| 2026-05-04 03:36 | 63.27840 | -12.32592 | 41021 ft | 513 kts | 104° |
| 2026-05-04 03:36 | 63.25864 | -12.17395 | 41036 ft | 513 kts | 104° |
| 2026-05-04 03:37 | 63.23876 | -12.02241 | 41020 ft | 511 kts | 104° |
| 2026-05-04 03:37 | 63.21871 | -11.87102 | 41013 ft | 511 kts | 104° |
| 2026-05-04 03:38 | 63.19849 | -11.71990 | 41014 ft | 510 kts | 105° |
| 2026-05-04 03:38 | 63.17816 | -11.56925 | 41015 ft | 510 kts | 105° |
| 2026-05-04 03:39 | 63.15779 | -11.41967 | 41013 ft | 510 kts | 105° |
| 2026-05-04 03:39 | 63.13718 | -11.26968 | 41017 ft | 509 kts | 105° |
| 2026-05-04 03:40 | 63.11644 | -11.12020 | 41015 ft | 509 kts | 105° |
| 2026-05-04 03:40 | 63.09539 | -10.96978 | 41014 ft | 509 kts | 105° |
| 2026-05-04 03:41 | 63.07433 | -10.82069 | 41012 ft | 509 kts | 105° |
| 2026-05-04 03:41 | 63.05308 | -10.67148 | 41009 ft | 509 kts | 106° |
| 2026-05-04 03:42 | 63.03184 | -10.52370 | 40997 ft | 509 kts | 106° |
| 2026-05-04 03:42 | 63.01036 | -10.37559 | 41001 ft | 507 kts | 106° |
| 2026-05-04 03:43 | 62.98857 | -10.22657 | 41003 ft | 507 kts | 106° |
| 2026-05-04 03:43 | 62.96698 | -10.08027 | 41002 ft | 507 kts | 107° |
| 2026-05-04 03:44 | 62.94505 | -9.93281 | 41002 ft | 507 kts | 107° |
| 2026-05-04 03:44 | 62.92295 | -9.78550 | 40995 ft | 507 kts | 107° |
| 2026-05-04 03:45 | 62.90071 | -9.63852 | 41003 ft | 506 kts | 107° |
| 2026-05-04 03:45 | 62.87839 | -9.49229 | 40996 ft | 506 kts | 107° |
| 2026-05-04 03:46 | 62.85588 | -9.34590 | 40993 ft | 506 kts | 107° |
| 2026-05-04 03:46 | 62.83321 | -9.19980 | 40979 ft | 506 kts | 108° |
| 2026-05-04 03:47 | 62.81042 | -9.05408 | 40983 ft | 506 kts | 108° |
| 2026-05-04 03:47 | 62.78764 | -8.90956 | 40999 ft | 506 kts | 108° |
| 2026-05-04 03:48 | 62.76444 | -8.76364 | 40985 ft | 504 kts | 108° |
| 2026-05-04 03:48 | 62.74126 | -8.61897 | 40977 ft | 505 kts | 108° |
| 2026-05-04 03:49 | 62.71797 | -8.47472 | 40979 ft | 505 kts | 108° |
| 2026-05-04 03:49 | 62.69460 | -8.33120 | 40977 ft | 505 kts | 108° |
| 2026-05-04 03:50 | 62.67098 | -8.18725 | 40978 ft | 505 kts | 109° |
| 2026-05-04 03:50 | 62.64717 | -8.04318 | 40978 ft | 505 kts | 109° |
| 2026-05-04 03:51 | 62.62324 | -7.89963 | 40958 ft | 505 kts | 109° |
| 2026-05-04 03:51 | 62.59913 | -7.75605 | 40939 ft | 505 kts | 109° |
| 2026-05-04 03:52 | 62.57486 | -7.61268 | 40961 ft | 505 kts | 109° |
| 2026-05-04 03:52 | 62.55055 | -7.47011 | 40955 ft | 505 kts | 109° |
| 2026-05-04 03:53 | 62.52600 | -7.32722 | 40966 ft | 505 kts | 110° |
| 2026-05-04 03:53 | 62.50142 | -7.18527 | 40951 ft | 503 kts | 110° |
| 2026-05-04 03:54 | 62.47662 | -7.04310 | 40953 ft | 504 kts | 110° |
| 2026-05-04 03:54 | 62.45598 | -6.92560 | 40949 ft | 504 kts | 110° |
| 2026-05-04 03:55 | 62.42690 | -6.76124 | 40949 ft | 504 kts | 110° |
| 2026-05-04 03:55 | 62.40576 | -6.64264 | 40952 ft | 504 kts | 110° |
| 2026-05-04 03:56 | 62.38043 | -6.50144 | 40968 ft | 503 kts | 111° |
| 2026-05-04 03:56 | 62.35510 | -6.36138 | 40948 ft | 502 kts | 111° |
| 2026-05-04 03:57 | 62.32958 | -6.22125 | 40952 ft | 502 kts | 111° |
| 2026-05-04 03:57 | 62.30406 | -6.08206 | 40956 ft | 502 kts | 111° |
| 2026-05-04 03:58 | 62.26533 | -5.87280 | 40952 ft | 502 kts | 111° |
| 2026-05-04 03:58 | 62.23931 | -5.73334 | 40960 ft | 503 kts | 112° |
| 2026-05-04 03:59 | 62.21311 | -5.59402 | 40954 ft | 503 kts | 112° |
| 2026-05-04 03:59 | 62.18698 | -5.45603 | 40951 ft | 503 kts | 112° |
| 2026-05-04 04:00 | 62.16057 | -5.31751 | 40949 ft | 503 kts | 112° |
| 2026-05-04 04:00 | 62.13394 | -5.17885 | 40948 ft | 503 kts | 112° |
| 2026-05-04 04:01 | 62.10726 | -5.04083 | 40956 ft | 503 kts | 113° |
| 2026-05-04 04:01 | 62.08035 | -4.90260 | 40939 ft | 502 kts | 113° |
| 2026-05-04 04:02 | 62.05353 | -4.76581 | 40936 ft | 503 kts | 113° |
| 2026-05-04 04:02 | 62.02636 | -4.62815 | 40936 ft | 503 kts | 113° |
| 2026-05-04 04:03 | 61.99914 | -4.49115 | 40939 ft | 503 kts | 114° |
| 2026-05-04 04:03 | 61.97172 | -4.35410 | 40939 ft | 503 kts | 114° |
| 2026-05-04 04:04 | 61.94437 | -4.21828 | 40940 ft | 503 kts | 114° |
| 2026-05-04 04:04 | 61.91652 | -4.08096 | 40937 ft | 503 kts | 114° |
| 2026-05-04 04:05 | 61.88888 | -3.94556 | 40933 ft | 503 kts | 114° |
| 2026-05-04 04:05 | 61.86090 | -3.80939 | 40906 ft | 503 kts | 115° |
| 2026-05-04 04:06 | 61.83284 | -3.67370 | 40932 ft | 503 kts | 115° |
| 2026-05-04 04:06 | 61.80466 | -3.53834 | 40943 ft | 502 kts | 115° |
| 2026-05-04 04:07 | 61.77650 | -3.40397 | 40930 ft | 503 kts | 115° |
| 2026-05-04 04:07 | 61.74795 | -3.26864 | 40927 ft | 503 kts | 115° |
| 2026-05-04 04:08 | 61.71932 | -3.13381 | 40931 ft | 503 kts | 115° |
| 2026-05-04 04:08 | 61.69062 | -2.99951 | 40927 ft | 503 kts | 116° |
| 2026-05-04 04:09 | 61.66170 | -2.86504 | 40925 ft | 503 kts | 116° |
| 2026-05-04 04:09 | 61.63265 | -2.73083 | 40926 ft | 505 kts | 116° |
| 2026-05-04 04:10 | 61.60336 | -2.59636 | 40923 ft | 506 kts | 116° |
| 2026-05-04 04:10 | 61.57394 | -2.46218 | 40919 ft | 506 kts | 116° |
| 2026-05-04 04:11 | 61.54440 | -2.32827 | 40926 ft | 506 kts | 116° |
| 2026-05-04 04:11 | 61.51470 | -2.19449 | 40920 ft | 506 kts | 116° |
| 2026-05-04 04:12 | 61.48489 | -2.06113 | 40922 ft | 506 kts | 116° |
| 2026-05-04 04:12 | 61.45499 | -1.92814 | 40921 ft | 508 kts | 116° |
| 2026-05-04 04:13 | 61.42477 | -1.79456 | 40920 ft | 508 kts | 117° |
| 2026-05-04 04:13 | 61.39441 | -1.66122 | 40917 ft | 508 kts | 117° |
| 2026-05-04 04:14 | 61.36404 | -1.52840 | 40920 ft | 508 kts | 117° |
| 2026-05-04 04:14 | 61.33344 | -1.39538 | 40922 ft | 508 kts | 117° |
| 2026-05-04 04:15 | 61.30281 | -1.26297 | 40913 ft | 507 kts | 117° |
| 2026-05-04 04:15 | 61.27223 | -1.13155 | 40916 ft | 507 kts | 117° |
| 2026-05-04 04:16 | 61.24135 | -0.99960 | 40911 ft | 507 kts | 117° |
| 2026-05-04 04:16 | 61.21042 | -0.86816 | 40911 ft | 507 kts | 117° |
| 2026-05-04 04:17 | 61.17932 | -0.73678 | 40909 ft | 507 kts | 117° |
| 2026-05-04 04:17 | 61.14836 | -0.60672 | 40908 ft | 507 kts | 117° |
| 2026-05-04 04:18 | 61.11704 | -0.47590 | 40905 ft | 507 kts | 118° |
| 2026-05-04 04:18 | 61.08563 | -0.34544 | 40906 ft | 507 kts | 118° |
| 2026-05-04 04:19 | 61.05413 | -0.21551 | 40909 ft | 506 kts | 118° |
| 2026-05-04 04:19 | 61.02237 | -0.08549 | 40898 ft | 506 kts | 120° |
| 2026-05-04 04:20 | 61.00352 | -0.02465 | 40889 ft | 500 kts | 134° |
| 2026-05-04 04:20 | 60.97837 | 0.02338 | 40911 ft | 490 kts | 150° |
| 2026-05-04 04:20 | 60.91980 | 0.09456 | 40885 ft | 488 kts | 154° |
| 2026-05-04 04:21 | 60.86101 | 0.16412 | 40908 ft | 488 kts | 154° |
| 2026-05-04 04:21 | 60.80199 | 0.23325 | 40905 ft | 488 kts | 154° |
| 2026-05-04 04:22 | 60.74328 | 0.30175 | 40878 ft | 488 kts | 154° |
| 2026-05-04 04:22 | 60.68421 | 0.37038 | 40902 ft | 487 kts | 154° |
| 2026-05-04 04:23 | 60.62527 | 0.43857 | 40905 ft | 487 kts | 154° |
| 2026-05-04 04:23 | 60.56613 | 0.50670 | 40905 ft | 487 kts | 154° |
| 2026-05-04 04:24 | 60.50743 | 0.57405 | 40902 ft | 487 kts | 154° |
| 2026-05-04 04:24 | 60.44840 | 0.64147 | 40872 ft | 487 kts | 154° |
| 2026-05-04 04:25 | 60.38936 | 0.70864 | 40899 ft | 486 kts | 154° |
| 2026-05-04 04:25 | 60.33038 | 0.77545 | 40904 ft | 485 kts | 155° |
| 2026-05-04 04:26 | 60.27132 | 0.84207 | 40907 ft | 486 kts | 155° |
| 2026-05-04 04:26 | 60.21244 | 0.90821 | 40899 ft | 486 kts | 155° |
| 2026-05-04 04:27 | 60.15331 | 0.97437 | 40880 ft | 485 kts | 155° |
| 2026-05-04 04:27 | 60.09426 | 1.04015 | 40899 ft | 484 kts | 155° |
| 2026-05-04 04:28 | 60.04520 | 1.09460 | 40900 ft | 484 kts | 155° |
| 2026-05-04 04:28 | 59.98626 | 1.15976 | 40900 ft | 484 kts | 155° |
| 2026-05-04 04:29 | 59.92727 | 1.22473 | 40900 ft | 484 kts | 155° |
| 2026-05-04 04:29 | 59.86820 | 1.28951 | 40878 ft | 484 kts | 155° |
| 2026-05-04 04:30 | 59.80906 | 1.35410 | 40898 ft | 483 kts | 155° |
| 2026-05-04 04:30 | 59.75014 | 1.41818 | 40898 ft | 483 kts | 155° |
| 2026-05-04 04:31 | 59.69127 | 1.48196 | 40898 ft | 483 kts | 155° |
| 2026-05-04 04:31 | 59.63259 | 1.54528 | 40896 ft | 483 kts | 155° |
| 2026-05-04 04:32 | 59.57359 | 1.60869 | 40875 ft | 482 kts | 155° |
| 2026-05-04 04:32 | 59.51474 | 1.67167 | 40898 ft | 480 kts | 155° |
| 2026-05-04 04:33 | 59.45604 | 1.73424 | 40899 ft | 480 kts | 155° |
| 2026-05-04 04:33 | 59.39721 | 1.79671 | 40900 ft | 480 kts | 155° |
| 2026-05-04 04:34 | 59.33844 | 1.85888 | 40900 ft | 480 kts | 155° |
| 2026-05-04 04:34 | 59.27957 | 1.92089 | 40885 ft | 479 kts | 155° |
| 2026-05-04 04:35 | 59.22093 | 1.98241 | 40895 ft | 478 kts | 155° |
| 2026-05-04 04:35 | 59.16221 | 2.04378 | 40897 ft | 479 kts | 155° |
| 2026-05-04 04:36 | 59.10349 | 2.10491 | 40905 ft | 478 kts | 155° |
| 2026-05-04 04:36 | 59.04475 | 2.16583 | 40903 ft | 478 kts | 155° |
| 2026-05-04 04:37 | 58.92715 | 2.28706 | 40897 ft | 478 kts | 156° |
| 2026-05-04 04:38 | 58.86875 | 2.34692 | 40897 ft | 478 kts | 156° |
| 2026-05-04 04:38 | 58.80989 | 2.40702 | 40899 ft | 478 kts | 156° |
| 2026-05-04 04:39 | 58.75083 | 2.46708 | 40894 ft | 478 kts | 156° |
| 2026-05-04 04:39 | 58.69195 | 2.52674 | 40901 ft | 478 kts | 156° |
| 2026-05-04 04:40 | 58.63297 | 2.58628 | 40915 ft | 479 kts | 156° |
| 2026-05-04 04:40 | 58.57439 | 2.64523 | 40903 ft | 478 kts | 156° |
| 2026-05-04 04:41 | 58.51533 | 2.70443 | 40906 ft | 478 kts | 156° |
| 2026-05-04 04:41 | 58.45634 | 2.76334 | 40918 ft | 478 kts | 156° |
| 2026-05-04 04:42 | 58.39786 | 2.82435 | 40906 ft | 481 kts | 146° |
| 2026-05-04 04:42 | 58.37317 | 2.86745 | 40922 ft | 484 kts | 134° |
| 2026-05-04 04:42 | 58.35053 | 2.91530 | 40909 ft | 486 kts | 136° |
| 2026-05-04 04:43 | 58.30379 | 3.00868 | 40938 ft | 487 kts | 136° |
| 2026-05-04 04:43 | 58.25749 | 3.10206 | 40930 ft | 486 kts | 136° |
| 2026-05-04 04:44 | 58.21099 | 3.19566 | 40933 ft | 485 kts | 136° |
| 2026-05-04 04:44 | 58.16487 | 3.28816 | 40930 ft | 485 kts | 136° |
| 2026-05-04 04:45 | 58.11846 | 3.38083 | 40929 ft | 484 kts | 136° |
| 2026-05-04 04:47 | 57.95582 | 3.70267 | 40941 ft | 483 kts | 136° |
| 2026-05-04 04:47 | 57.90945 | 3.79361 | 40937 ft | 482 kts | 136° |
| 2026-05-04 04:48 | 57.86285 | 3.88463 | 40915 ft | 482 kts | 136° |
| 2026-05-04 04:49 | 57.74651 | 4.11030 | 40942 ft | 481 kts | 137° |
| 2026-05-04 04:49 | 57.69992 | 4.20006 | 40938 ft | 481 kts | 137° |
| 2026-05-04 04:50 | 57.65316 | 4.28979 | 40936 ft | 481 kts | 137° |
| 2026-05-04 04:50 | 57.60664 | 4.37870 | 40936 ft | 481 kts | 137° |
| 2026-05-04 04:51 | 57.55992 | 4.46765 | 40921 ft | 481 kts | 137° |
| 2026-05-04 04:51 | 57.51301 | 4.55662 | 40939 ft | 480 kts | 137° |
| 2026-05-04 04:52 | 57.46612 | 4.64520 | 40939 ft | 480 kts | 137° |
| 2026-05-04 04:52 | 57.41925 | 4.73338 | 40939 ft | 480 kts | 137° |
| 2026-05-04 04:53 | 57.37231 | 4.82138 | 40933 ft | 480 kts | 137° |
| 2026-05-04 04:53 | 57.32528 | 4.90919 | 40933 ft | 479 kts | 137° |
| 2026-05-04 04:54 | 57.27829 | 4.99661 | 40919 ft | 479 kts | 137° |
| 2026-05-04 04:54 | 57.23160 | 5.08311 | 40930 ft | 478 kts | 137° |
| 2026-05-04 04:55 | 57.18455 | 5.16996 | 40931 ft | 478 kts | 137° |
| 2026-05-04 04:55 | 57.13741 | 5.25665 | 40930 ft | 478 kts | 138° |
| 2026-05-04 04:56 | 57.09034 | 5.34295 | 40936 ft | 478 kts | 138° |
| 2026-05-04 04:56 | 57.04313 | 5.42920 | 40934 ft | 478 kts | 138° |
| 2026-05-04 04:57 | 56.99656 | 5.51674 | 40930 ft | 480 kts | 131° |
| 2026-05-04 04:57 | 56.95337 | 5.61012 | 40939 ft | 479 kts | 133° |
| 2026-05-04 04:58 | 56.90966 | 5.70214 | 40934 ft | 478 kts | 133° |
| 2026-05-04 04:58 | 56.86592 | 5.79385 | 40934 ft | 478 kts | 134° |
| 2026-05-04 04:59 | 56.82206 | 5.88548 | 40926 ft | 478 kts | 134° |
| 2026-05-04 04:59 | 56.77852 | 5.97606 | 40937 ft | 477 kts | 134° |
| 2026-05-04 05:00 | 56.73464 | 6.06700 | 40931 ft | 477 kts | 134° |
| 2026-05-04 05:01 | 56.66871 | 6.20302 | 40928 ft | 477 kts | 134° |
| 2026-05-04 05:01 | 56.63215 | 6.27808 | 40927 ft | 476 kts | 134° |
| 2026-05-04 05:02 | 56.58807 | 6.36830 | 40930 ft | 476 kts | 134° |
| 2026-05-04 05:02 | 56.54407 | 6.45801 | 40935 ft | 476 kts | 134° |
| 2026-05-04 05:03 | 56.50005 | 6.54741 | 40925 ft | 475 kts | 134° |
| 2026-05-04 05:04 | 56.41168 | 6.72586 | 40925 ft | 475 kts | 134° |
| 2026-05-04 05:04 | 56.36746 | 6.81465 | 40923 ft | 475 kts | 135° |
| 2026-05-04 05:06 | 56.19027 | 7.16716 | 40927 ft | 474 kts | 135° |
| 2026-05-04 05:07 | 56.14582 | 7.25477 | 40927 ft | 474 kts | 135° |
| 2026-05-04 05:07 | 56.10130 | 7.34221 | 40925 ft | 474 kts | 135° |
| 2026-05-04 05:09 | 55.90100 | 7.73175 | 40917 ft | 473 kts | 136° |
| 2026-05-04 05:10 | 55.85624 | 7.81786 | 40917 ft | 473 kts | 136° |
| 2026-05-04 05:10 | 55.81144 | 7.90388 | 40909 ft | 473 kts | 136° |
| 2026-05-04 05:11 | 55.76663 | 7.98962 | 40916 ft | 473 kts | 136° |
| 2026-05-04 05:11 | 55.72178 | 8.07515 | 40922 ft | 473 kts | 136° |
| 2026-05-04 05:12 | 55.67692 | 8.16038 | 40914 ft | 473 kts | 136° |
| 2026-05-04 05:12 | 55.63186 | 8.24572 | 40914 ft | 473 kts | 136° |
| 2026-05-04 05:13 | 55.60814 | 8.28565 | 40891 ft | 467 kts | 148° |
| 2026-05-04 05:13 | 55.58049 | 8.31302 | 40923 ft | 457 kts | 161° |
| 2026-05-04 05:13 | 55.52140 | 8.35650 | 40891 ft | 459 kts | 161° |
| 2026-05-04 05:14 | 55.46225 | 8.39826 | 40910 ft | 458 kts | 162° |
| 2026-05-04 05:14 | 55.40300 | 8.43934 | 40911 ft | 457 kts | 162° |
| 2026-05-04 05:15 | 55.34377 | 8.48026 | 40912 ft | 457 kts | 162° |
| 2026-05-04 05:15 | 55.28460 | 8.52101 | 40913 ft | 457 kts | 162° |
| 2026-05-04 05:16 | 55.22536 | 8.56168 | 40913 ft | 457 kts | 162° |
| 2026-05-04 05:16 | 55.16614 | 8.60220 | 40913 ft | 456 kts | 162° |
| 2026-05-04 05:17 | 55.10697 | 8.64257 | 40913 ft | 456 kts | 162° |
| 2026-05-04 05:17 | 55.04779 | 8.68277 | 40916 ft | 456 kts | 162° |
| 2026-05-04 05:18 | 54.98866 | 8.72282 | 40913 ft | 456 kts | 162° |
| 2026-05-04 05:18 | 54.92938 | 8.76285 | 40893 ft | 456 kts | 162° |
| 2026-05-04 05:19 | 54.90085 | 8.78702 | 40885 ft | 460 kts | 149° |
| 2026-05-04 05:19 | 54.87576 | 8.82197 | 40919 ft | 464 kts | 143° |
| 2026-05-04 05:19 | 54.82591 | 8.89338 | 40923 ft | 466 kts | 143° |
| 2026-05-04 05:20 | 54.77665 | 8.96557 | 40908 ft | 465 kts | 143° |
| 2026-05-04 05:20 | 54.72735 | 9.03823 | 40908 ft | 466 kts | 143° |
| 2026-05-04 05:21 | 54.67802 | 9.11078 | 40908 ft | 465 kts | 143° |
| 2026-05-04 05:21 | 54.62866 | 9.18313 | 40906 ft | 465 kts | 143° |
| 2026-05-04 05:22 | 54.57932 | 9.25520 | 40911 ft | 465 kts | 143° |
| 2026-05-04 05:22 | 54.52983 | 9.32727 | 40901 ft | 465 kts | 143° |
| 2026-05-04 05:23 | 54.48036 | 9.39907 | 40908 ft | 465 kts | 143° |
| 2026-05-04 05:23 | 54.43092 | 9.47060 | 40907 ft | 465 kts | 143° |
| 2026-05-04 05:24 | 54.38139 | 9.54200 | 40910 ft | 465 kts | 143° |
| 2026-05-04 05:24 | 54.33208 | 9.61287 | 40914 ft | 465 kts | 143° |
| 2026-05-04 05:25 | 54.28210 | 9.68448 | 40907 ft | 466 kts | 143° |
| 2026-05-04 05:25 | 54.23229 | 9.75559 | 40909 ft | 466 kts | 143° |
| 2026-05-04 05:26 | 54.18246 | 9.82651 | 40914 ft | 466 kts | 143° |
| 2026-05-04 05:26 | 54.13256 | 9.89730 | 40919 ft | 466 kts | 143° |
| 2026-05-04 05:28 | 53.93266 | 10.17861 | 40928 ft | 467 kts | 144° |
| 2026-05-04 05:29 | 53.88245 | 10.24869 | 40931 ft | 467 kts | 144° |
| 2026-05-04 05:29 | 53.83229 | 10.31849 | 40916 ft | 467 kts | 144° |
| 2026-05-04 05:31 | 53.63128 | 10.59596 | 40933 ft | 465 kts | 144° |
| 2026-05-04 05:32 | 53.58095 | 10.66488 | 40932 ft | 465 kts | 144° |
| 2026-05-04 05:33 | 53.51368 | 10.75666 | 40924 ft | 465 kts | 144° |
| 2026-05-04 05:33 | 53.46344 | 10.82496 | 40923 ft | 465 kts | 144° |
| 2026-05-04 05:34 | 53.41309 | 10.89320 | 40913 ft | 465 kts | 144° |
| 2026-05-04 05:34 | 53.36282 | 10.96109 | 40919 ft | 463 kts | 144° |
| 2026-05-04 05:35 | 53.31268 | 11.02862 | 40927 ft | 463 kts | 144° |
| 2026-05-04 05:35 | 53.26251 | 11.09600 | 40928 ft | 463 kts | 144° |
| 2026-05-04 05:36 | 53.21226 | 11.16331 | 40920 ft | 463 kts | 144° |
| 2026-05-04 05:36 | 53.16229 | 11.23003 | 40928 ft | 462 kts | 144° |
| 2026-05-04 05:37 | 53.11289 | 11.29857 | 40924 ft | 463 kts | 140° |
| 2026-05-04 05:37 | 53.06530 | 11.37087 | 40927 ft | 462 kts | 141° |
| 2026-05-04 05:38 | 52.99349 | 11.47822 | 40932 ft | 462 kts | 141° |
| 2026-05-04 05:38 | 52.94565 | 11.54948 | 40929 ft | 462 kts | 141° |
| 2026-05-04 05:39 | 52.87386 | 11.65599 | 40935 ft | 462 kts | 141° |
| 2026-05-04 05:40 | 52.80222 | 11.76180 | 40931 ft | 460 kts | 141° |
| 2026-05-04 05:40 | 52.75439 | 11.83216 | 40941 ft | 460 kts | 142° |
| 2026-05-04 05:41 | 52.70665 | 11.90219 | 40944 ft | 460 kts | 142° |
| 2026-05-04 05:41 | 52.65874 | 11.97225 | 40941 ft | 459 kts | 142° |
| 2026-05-04 05:42 | 52.61061 | 12.04241 | 40940 ft | 459 kts | 142° |
| 2026-05-04 05:42 | 52.56274 | 12.11197 | 40941 ft | 457 kts | 142° |
| 2026-05-04 05:43 | 52.51542 | 12.18055 | 40939 ft | 457 kts | 142° |
| 2026-05-04 05:45 | 52.32433 | 12.45537 | 40946 ft | 456 kts | 142° |
| 2026-05-04 05:47 | 52.13255 | 12.72787 | 40955 ft | 457 kts | 142° |
| 2026-05-04 05:47 | 52.08440 | 12.79580 | 40955 ft | 457 kts | 142° |
| 2026-05-04 05:48 | 52.03655 | 12.86309 | 40947 ft | 457 kts | 142° |
| 2026-05-04 05:48 | 51.98798 | 12.93120 | 40964 ft | 459 kts | 142° |
| 2026-05-04 05:49 | 51.94008 | 12.99816 | 40959 ft | 458 kts | 142° |
| 2026-05-04 05:49 | 51.89172 | 13.06558 | 40960 ft | 458 kts | 142° |
| 2026-05-04 05:51 | 51.69797 | 13.33367 | 40965 ft | 458 kts | 142° |
| 2026-05-04 05:52 | 51.64945 | 13.40032 | 40968 ft | 458 kts | 142° |
| 2026-05-04 05:52 | 51.60094 | 13.46677 | 40971 ft | 457 kts | 142° |
| 2026-05-04 05:54 | 51.40644 | 13.73124 | 40978 ft | 458 kts | 142° |
| 2026-05-04 05:55 | 51.35782 | 13.79687 | 40984 ft | 458 kts | 142° |
| 2026-05-04 05:55 | 51.30895 | 13.86265 | 40989 ft | 458 kts | 143° |
| 2026-05-04 05:56 | 51.26012 | 13.92819 | 40993 ft | 458 kts | 143° |
| 2026-05-04 05:56 | 51.21122 | 13.99363 | 40990 ft | 458 kts | 143° |
| 2026-05-04 05:57 | 51.16277 | 14.05829 | 40994 ft | 458 kts | 143° |
| 2026-05-04 05:57 | 51.11379 | 14.12351 | 40992 ft | 457 kts | 143° |
| 2026-05-04 05:58 | 51.06492 | 14.18840 | 40992 ft | 457 kts | 143° |
| 2026-05-04 05:58 | 51.01609 | 14.25305 | 40997 ft | 457 kts | 143° |
| 2026-05-04 05:59 | 50.96749 | 14.31725 | 40989 ft | 458 kts | 143° |
| 2026-05-04 05:59 | 50.91770 | 14.38066 | 40987 ft | 458 kts | 146° |
| 2026-05-04 06:00 | 50.86673 | 14.44123 | 41002 ft | 457 kts | 145° |
| 2026-05-04 06:00 | 50.81595 | 14.50204 | 41005 ft | 457 kts | 145° |
| 2026-05-04 06:01 | 50.76516 | 14.56278 | 40999 ft | 457 kts | 145° |
| 2026-05-04 06:03 | 50.56197 | 14.80409 | 41001 ft | 457 kts | 145° |
| 2026-05-04 06:05 | 50.34109 | 15.06340 | 40998 ft | 458 kts | 145° |
| 2026-05-04 06:06 | 50.28999 | 15.12294 | 41004 ft | 457 kts | 145° |
| 2026-05-04 06:06 | 50.23890 | 15.18233 | 41007 ft | 457 kts | 145° |
| 2026-05-04 06:07 | 50.18821 | 15.24107 | 41016 ft | 457 kts | 145° |
| 2026-05-04 06:07 | 50.13704 | 15.30024 | 41001 ft | 457 kts | 145° |
| 2026-05-04 06:08 | 50.08576 | 15.35933 | 41009 ft | 458 kts | 145° |
| 2026-05-04 06:08 | 50.03444 | 15.41834 | 41010 ft | 458 kts | 145° |
| 2026-05-04 06:09 | 49.98307 | 15.47723 | 41009 ft | 458 kts | 145° |
| 2026-05-04 06:11 | 49.77768 | 15.71113 | 41018 ft | 458 kts | 145° |
| 2026-05-04 06:13 | 49.57136 | 15.94358 | 41025 ft | 460 kts | 146° |
| 2026-05-04 06:14 | 49.39010 | 16.14578 | 41030 ft | 460 kts | 145° |
| 2026-05-04 06:15 | 49.33820 | 16.20335 | 41036 ft | 460 kts | 146° |
| 2026-05-04 06:15 | 49.28748 | 16.26343 | 41036 ft | 462 kts | 142° |
| 2026-05-04 06:16 | 49.23714 | 16.32505 | 41030 ft | 462 kts | 142° |
| 2026-05-04 06:16 | 49.18689 | 16.38621 | 41046 ft | 462 kts | 142° |
| 2026-05-04 06:17 | 49.13689 | 16.44692 | 41043 ft | 461 kts | 142° |
| 2026-05-04 06:17 | 49.08648 | 16.50796 | 41044 ft | 461 kts | 142° |
| 2026-05-04 06:18 | 49.03605 | 16.56887 | 41040 ft | 463 kts | 142° |
| 2026-05-04 06:20 | 48.83369 | 16.81162 | 41041 ft | 463 kts | 143° |
| 2026-05-04 06:21 | 48.70620 | 16.96326 | 41059 ft | 465 kts | 142° |
| 2026-05-04 06:22 | 48.65498 | 17.02389 | 41060 ft | 465 kts | 143° |
| 2026-05-04 06:25 | 48.29677 | 17.44353 | 41103 ft | 467 kts | 142° |
| 2026-05-04 06:26 | 48.24541 | 17.50302 | 41098 ft | 465 kts | 142° |
| 2026-05-04 06:26 | 48.19422 | 17.56221 | 41103 ft | 465 kts | 142° |
| 2026-05-04 06:27 | 48.06591 | 17.70989 | 41101 ft | 465 kts | 143° |
| 2026-05-04 06:28 | 48.01458 | 17.76870 | 41095 ft | 466 kts | 142° |
| 2026-05-04 06:28 | 47.96308 | 17.82755 | 41095 ft | 466 kts | 142° |
| 2026-05-04 06:29 | 47.91153 | 17.88632 | 41098 ft | 466 kts | 142° |
| 2026-05-04 06:29 | 47.86027 | 17.94462 | 41100 ft | 466 kts | 142° |
| 2026-05-04 06:30 | 47.80876 | 18.00308 | 41107 ft | 466 kts | 142° |
| 2026-05-04 06:30 | 47.75659 | 18.06171 | 41100 ft | 466 kts | 144° |
| 2026-05-04 06:31 | 47.70388 | 18.11814 | 41108 ft | 467 kts | 143° |
| 2026-05-04 06:31 | 47.65160 | 18.17431 | 41107 ft | 466 kts | 143° |
| 2026-05-04 06:33 | 47.44047 | 18.39992 | 41125 ft | 467 kts | 143° |
| 2026-05-04 06:34 | 47.38778 | 18.45587 | 41132 ft | 466 kts | 143° |
| 2026-05-04 06:34 | 47.33502 | 18.51175 | 41135 ft | 467 kts | 144° |
| 2026-05-04 06:36 | 47.13281 | 18.72463 | 41147 ft | 465 kts | 143° |
| 2026-05-04 06:37 | 47.08011 | 18.77979 | 41148 ft | 466 kts | 144° |
| 2026-05-04 06:37 | 47.02761 | 18.83461 | 41153 ft | 466 kts | 143° |
| 2026-05-04 06:38 | 46.97470 | 18.88969 | 41159 ft | 466 kts | 143° |
| 2026-05-04 06:40 | 46.76259 | 19.10919 | 41174 ft | 468 kts | 143° |
| 2026-05-04 06:40 | 46.70949 | 19.16380 | 41170 ft | 468 kts | 143° |
| 2026-05-04 06:41 | 46.65622 | 19.21846 | 41171 ft | 468 kts | 143° |
| 2026-05-04 06:41 | 46.60296 | 19.27296 | 41169 ft | 468 kts | 143° |
| 2026-05-04 06:42 | 46.54952 | 19.32752 | 41177 ft | 468 kts | 143° |
| 2026-05-04 06:44 | 46.33560 | 19.54460 | 41172 ft | 470 kts | 143° |
| 2026-05-04 06:44 | 46.28189 | 19.59881 | 41173 ft | 470 kts | 143° |
| 2026-05-04 06:45 | 46.22796 | 19.65309 | 41172 ft | 471 kts | 143° |
| 2026-05-04 06:45 | 46.17460 | 19.70783 | 41176 ft | 471 kts | 142° |
| 2026-05-04 06:46 | 46.12178 | 19.76386 | 41173 ft | 471 kts | 142° |
| 2026-05-04 06:46 | 46.06920 | 19.81931 | 41174 ft | 471 kts | 142° |
| 2026-05-04 06:48 | 45.85827 | 20.04042 | 41180 ft | 471 kts | 142° |
| 2026-05-04 06:50 | 45.64557 | 20.26125 | 41182 ft | 473 kts | 142° |
| 2026-05-04 06:51 | 45.59227 | 20.31626 | 41203 ft | 473 kts | 142° |
| 2026-05-04 06:51 | 45.53910 | 20.37100 | 41194 ft | 474 kts | 142° |
| 2026-05-04 06:52 | 45.48550 | 20.42605 | 41191 ft | 475 kts | 142° |
| 2026-05-04 06:52 | 45.43178 | 20.48109 | 41189 ft | 475 kts | 142° |
| 2026-05-04 06:53 | 45.37806 | 20.53601 | 41189 ft | 475 kts | 142° |
| 2026-05-04 06:53 | 45.32437 | 20.59077 | 41196 ft | 475 kts | 142° |
| 2026-05-04 06:54 | 45.27033 | 20.64573 | 41181 ft | 475 kts | 142° |
| 2026-05-04 06:54 | 45.21682 | 20.70004 | 41187 ft | 476 kts | 142° |
| 2026-05-04 06:55 | 45.16287 | 20.75467 | 41184 ft | 476 kts | 142° |
| 2026-05-04 06:55 | 45.10898 | 20.80911 | 41196 ft | 476 kts | 142° |
| 2026-05-04 06:57 | 44.89289 | 21.02609 | 41205 ft | 477 kts | 142° |
| 2026-05-04 06:58 | 44.83900 | 21.07990 | 41195 ft | 477 kts | 142° |
| 2026-05-04 06:58 | 44.78490 | 21.13382 | 41192 ft | 477 kts | 142° |
| 2026-05-04 06:59 | 44.73029 | 21.18679 | 41189 ft | 477 kts | 144° |
| 2026-05-04 06:59 | 44.67518 | 21.23889 | 41182 ft | 477 kts | 144° |
| 2026-05-04 07:01 | 44.45480 | 21.44687 | 41186 ft | 478 kts | 144° |
| 2026-05-04 07:02 | 44.39955 | 21.49871 | 41188 ft | 477 kts | 144° |
| 2026-05-04 07:02 | 44.34438 | 21.55036 | 41179 ft | 477 kts | 144° |
| 2026-05-04 07:03 | 44.28926 | 21.60184 | 41177 ft | 477 kts | 144° |
| 2026-05-04 07:03 | 44.23429 | 21.65306 | 41175 ft | 478 kts | 144° |
| 2026-05-04 07:04 | 44.17890 | 21.70456 | 41187 ft | 478 kts | 144° |
| 2026-05-04 07:04 | 44.12357 | 21.75588 | 41171 ft | 476 kts | 144° |
| 2026-05-04 07:05 | 44.06835 | 21.80698 | 41172 ft | 477 kts | 144° |
| 2026-05-04 07:05 | 44.01337 | 21.85774 | 41162 ft | 477 kts | 144° |
| 2026-05-04 07:06 | 43.93035 | 21.93419 | 41174 ft | 476 kts | 144° |
| 2026-05-04 07:07 | 43.87516 | 21.98486 | 41164 ft | 475 kts | 144° |
| 2026-05-04 07:09 | 43.65363 | 22.18711 | 41170 ft | 478 kts | 144° |
| 2026-05-04 07:09 | 43.59801 | 22.23760 | 41178 ft | 478 kts | 144° |
| 2026-05-04 07:10 | 43.54276 | 22.28765 | 41182 ft | 478 kts | 144° |
| 2026-05-04 07:12 | 43.32938 | 22.47989 | 41187 ft | 477 kts | 144° |
| 2026-05-04 07:12 | 43.27372 | 22.52978 | 41188 ft | 480 kts | 145° |
| 2026-05-04 07:13 | 43.21779 | 22.57978 | 41172 ft | 479 kts | 145° |
| 2026-05-04 07:13 | 43.16189 | 22.62964 | 41175 ft | 479 kts | 145° |
| 2026-05-04 07:14 | 43.02227 | 22.75377 | 41174 ft | 479 kts | 145° |
| 2026-05-04 07:15 | 42.96670 | 22.80417 | 41169 ft | 478 kts | 143° |
| 2026-05-04 07:15 | 42.91224 | 22.85636 | 41168 ft | 478 kts | 143° |
| 2026-05-04 07:16 | 42.85766 | 22.90823 | 41170 ft | 478 kts | 143° |
| 2026-05-04 07:16 | 42.80307 | 22.96000 | 41169 ft | 479 kts | 143° |
| 2026-05-04 07:17 | 42.74833 | 23.01182 | 41170 ft | 479 kts | 143° |
| 2026-05-04 07:17 | 42.69355 | 23.06355 | 41172 ft | 479 kts | 143° |
| 2026-05-04 07:18 | 42.63874 | 23.11520 | 41178 ft | 479 kts | 143° |
| 2026-05-04 07:18 | 42.58393 | 23.16673 | 41182 ft | 478 kts | 143° |
| 2026-05-04 07:19 | 42.52916 | 23.21811 | 41178 ft | 479 kts | 143° |
| 2026-05-04 07:19 | 42.47448 | 23.26930 | 41175 ft | 479 kts | 143° |
| 2026-05-04 07:20 | 42.41960 | 23.32057 | 41174 ft | 479 kts | 143° |
| 2026-05-04 07:20 | 42.36465 | 23.37179 | 41170 ft | 479 kts | 143° |
| 2026-05-04 07:22 | 42.14524 | 23.57521 | 41154 ft | 479 kts | 143° |
| 2026-05-04 07:23 | 42.09018 | 23.62599 | 41143 ft | 480 kts | 143° |
| 2026-05-04 07:23 | 42.03503 | 23.67673 | 41148 ft | 480 kts | 144° |
| 2026-05-04 07:24 | 41.97969 | 23.72755 | 41149 ft | 481 kts | 143° |
| 2026-05-04 07:24 | 41.92444 | 23.77816 | 41149 ft | 481 kts | 144° |
| 2026-05-04 07:26 | 41.70336 | 23.97966 | 41139 ft | 481 kts | 144° |
| 2026-05-04 07:27 | 41.64802 | 24.02984 | 41140 ft | 481 kts | 144° |
| 2026-05-04 07:27 | 41.59253 | 24.08007 | 41148 ft | 481 kts | 144° |
| 2026-05-04 07:28 | 41.53700 | 24.13007 | 41135 ft | 481 kts | 144° |
| 2026-05-04 07:28 | 41.48138 | 24.17979 | 41135 ft | 481 kts | 144° |
| 2026-05-04 07:29 | 41.42584 | 24.22939 | 41135 ft | 481 kts | 144° |
| 2026-05-04 07:29 | 41.37020 | 24.27898 | 41132 ft | 481 kts | 144° |
| 2026-05-04 07:30 | 41.31455 | 24.32847 | 41137 ft | 481 kts | 144° |
| 2026-05-04 07:30 | 41.25881 | 24.37795 | 41135 ft | 481 kts | 144° |
| 2026-05-04 07:31 | 41.20343 | 24.42692 | 41135 ft | 481 kts | 146° |
| 2026-05-04 07:33 | 40.96219 | 24.58327 | 41131 ft | 483 kts | 153° |
| 2026-05-04 07:33 | 40.90162 | 24.62182 | 41128 ft | 483 kts | 153° |
| 2026-05-04 07:34 | 40.84095 | 24.66037 | 41129 ft | 483 kts | 153° |
| 2026-05-04 07:34 | 40.78043 | 24.69876 | 41132 ft | 483 kts | 153° |
| 2026-05-04 07:35 | 40.71993 | 24.73721 | 41137 ft | 483 kts | 153° |
| 2026-05-04 07:35 | 40.65922 | 24.77563 | 41135 ft | 483 kts | 153° |
| 2026-05-04 07:36 | 40.59893 | 24.81370 | 41135 ft | 483 kts | 153° |
| 2026-05-04 07:38 | 40.35606 | 24.96619 | 41141 ft | 484 kts | 153° |
| 2026-05-04 07:38 | 40.29565 | 25.00393 | 41139 ft | 484 kts | 153° |
| 2026-05-04 07:39 | 40.23484 | 25.04184 | 41141 ft | 484 kts | 154° |
| 2026-05-04 07:39 | 40.17402 | 25.07968 | 41136 ft | 484 kts | 154° |
| 2026-05-04 07:40 | 40.11323 | 25.11743 | 41136 ft | 484 kts | 154° |
| 2026-05-04 07:40 | 40.05232 | 25.15518 | 41132 ft | 484 kts | 154° |
| 2026-05-04 07:41 | 39.99135 | 25.19290 | 41129 ft | 484 kts | 154° |
| 2026-05-04 07:41 | 39.93059 | 25.23098 | 41127 ft | 483 kts | 148° |
| 2026-05-04 07:42 | 39.90384 | 25.25689 | 41131 ft | 479 kts | 136° |
| 2026-05-04 07:42 | 39.87890 | 25.28518 | 41121 ft | 482 kts | 139° |
| 2026-05-04 07:42 | 39.82771 | 25.34196 | 41143 ft | 482 kts | 138° |
| 2026-05-04 07:43 | 39.77704 | 25.39919 | 41132 ft | 482 kts | 137° |
| 2026-05-04 07:43 | 39.72639 | 25.45651 | 41133 ft | 482 kts | 137° |
| 2026-05-04 07:44 | 39.67581 | 25.51367 | 41131 ft | 483 kts | 137° |
| 2026-05-04 07:44 | 39.62526 | 25.57065 | 41127 ft | 483 kts | 137° |
| 2026-05-04 07:45 | 39.57446 | 25.62783 | 41127 ft | 483 kts | 138° |
| 2026-05-04 07:45 | 39.52362 | 25.68492 | 41124 ft | 486 kts | 138° |
| 2026-05-04 07:46 | 39.48106 | 25.73263 | 41125 ft | 486 kts | 138° |
| 2026-05-04 07:46 | 39.42994 | 25.78982 | 41119 ft | 485 kts | 138° |
| 2026-05-04 07:47 | 39.37875 | 25.84699 | 41113 ft | 486 kts | 138° |
| 2026-05-04 07:49 | 39.17214 | 26.07205 | 41111 ft | 484 kts | 139° |
| 2026-05-04 07:49 | 39.12061 | 26.12731 | 41103 ft | 486 kts | 139° |
| 2026-05-04 07:50 | 39.06846 | 26.18312 | 41104 ft | 488 kts | 139° |
| 2026-05-04 07:50 | 39.01622 | 26.23891 | 41100 ft | 487 kts | 139° |
| 2026-05-04 07:51 | 38.96400 | 26.29458 | 41099 ft | 486 kts | 140° |
| 2026-05-04 07:51 | 38.91197 | 26.34993 | 41095 ft | 485 kts | 140° |
| 2026-05-04 07:52 | 38.86013 | 26.40498 | 41088 ft | 486 kts | 140° |
| 2026-05-04 07:52 | 38.80889 | 26.46165 | 41083 ft | 486 kts | 138° |
| 2026-05-04 07:54 | 38.60491 | 26.68938 | 41063 ft | 485 kts | 138° |
| 2026-05-04 07:55 | 38.55395 | 26.74597 | 41057 ft | 487 kts | 139° |
| 2026-05-04 07:55 | 38.50301 | 26.80244 | 41050 ft | 487 kts | 139° |
| 2026-05-04 07:56 | 38.45179 | 26.85910 | 41050 ft | 487 kts | 139° |
| 2026-05-04 07:56 | 38.40142 | 26.91472 | 41038 ft | 487 kts | 139° |
| 2026-05-04 07:57 | 38.35051 | 26.97084 | 41047 ft | 487 kts | 139° |
| 2026-05-04 07:57 | 38.29537 | 27.01896 | 41046 ft | 483 kts | 158° |
| 2026-05-04 07:58 | 38.23340 | 27.05387 | 41036 ft | 487 kts | 157° |
| 2026-05-04 07:58 | 38.17132 | 27.08841 | 41045 ft | 487 kts | 157° |
| 2026-05-04 07:59 | 38.10916 | 27.12282 | 41043 ft | 487 kts | 157° |
| 2026-05-04 07:59 | 38.04695 | 27.15720 | 41031 ft | 487 kts | 158° |
| 2026-05-04 08:00 | 37.98480 | 27.19148 | 41036 ft | 488 kts | 158° |
| 2026-05-04 08:02 | 37.73582 | 27.32817 | 41051 ft | 488 kts | 158° |
| 2026-05-04 08:02 | 37.67355 | 27.36221 | 41029 ft | 488 kts | 158° |
| 2026-05-04 08:03 | 37.61141 | 27.39694 | 41019 ft | 488 kts | 157° |
| 2026-05-04 08:03 | 37.54987 | 27.43212 | 41005 ft | 488 kts | 157° |
| 2026-05-04 08:04 | 37.48755 | 27.46668 | 41018 ft | 489 kts | 159° |
| 2026-05-04 08:04 | 37.42440 | 27.49987 | 40995 ft | 489 kts | 159° |
| 2026-05-04 08:05 | 37.36166 | 27.53301 | 40998 ft | 489 kts | 159° |
| 2026-05-04 08:05 | 37.29893 | 27.56611 | 41002 ft | 489 kts | 158° |
| 2026-05-04 08:06 | 37.23655 | 27.60002 | 41021 ft | 489 kts | 158° |
| 2026-05-04 08:06 | 37.17404 | 27.63385 | 41022 ft | 489 kts | 158° |
| 2026-05-04 08:08 | 36.92406 | 27.76860 | 40995 ft | 490 kts | 159° |
| 2026-05-04 08:11 | 36.64181 | 27.91868 | 40972 ft | 490 kts | 159° |
| 2026-05-04 08:11 | 36.54760 | 27.96782 | 40959 ft | 491 kts | 159° |
| 2026-05-04 08:12 | 36.48454 | 28.00150 | 40965 ft | 493 kts | 158° |
| 2026-05-04 08:12 | 36.42202 | 28.03640 | 40966 ft | 492 kts | 158° |
| 2026-05-04 08:13 | 36.36001 | 28.07149 | 40967 ft | 494 kts | 152° |
| 2026-05-04 08:13 | 36.33243 | 28.09658 | 40947 ft | 495 kts | 137° |
| 2026-05-04 08:13 | 36.30844 | 28.12730 | 40934 ft | 498 kts | 135° |
| 2026-05-04 08:14 | 36.26015 | 28.18967 | 40962 ft | 503 kts | 134° |
| 2026-05-04 08:16 | 36.06989 | 28.44295 | 40959 ft | 501 kts | 134° |
| 2026-05-04 08:16 | 36.02250 | 28.50577 | 40959 ft | 500 kts | 134° |
| 2026-05-04 08:17 | 35.97488 | 28.56878 | 40936 ft | 502 kts | 134° |
| 2026-05-04 08:17 | 35.92723 | 28.63170 | 40957 ft | 501 kts | 134° |
| 2026-05-04 08:19 | 35.72878 | 28.87021 | 40944 ft | 498 kts | 138° |
| 2026-05-04 08:20 | 35.67864 | 28.92926 | 40944 ft | 499 kts | 138° |
| 2026-05-04 08:20 | 35.62848 | 28.98824 | 40939 ft | 500 kts | 139° |
| 2026-05-04 08:21 | 35.57811 | 29.04733 | 40935 ft | 500 kts | 139° |
| 2026-05-04 08:21 | 35.53628 | 29.09633 | 40936 ft | 500 kts | 139° |
| 2026-05-04 08:22 | 35.48585 | 29.15531 | 40930 ft | 500 kts | 139° |
| 2026-05-04 08:24 | 35.28415 | 29.39013 | 40921 ft | 503 kts | 140° |
| 2026-05-04 08:24 | 35.23319 | 29.44920 | 40928 ft | 503 kts | 140° |
| 2026-05-04 08:25 | 35.18233 | 29.50804 | 40921 ft | 503 kts | 140° |
| 2026-05-04 08:25 | 35.13146 | 29.56679 | 40934 ft | 503 kts | 140° |
| 2026-05-04 08:27 | 34.92847 | 29.80150 | 40927 ft | 505 kts | 140° |
| 2026-05-04 08:28 | 34.87771 | 29.86065 | 40931 ft | 505 kts | 140° |
| 2026-05-04 08:28 | 34.82678 | 29.91990 | 40932 ft | 505 kts | 140° |
| 2026-05-04 08:29 | 34.77601 | 29.97880 | 40933 ft | 505 kts | 141° |
| 2026-05-04 08:29 | 34.74833 | 30.00447 | 40908 ft | 494 kts | 156° |
| 2026-05-04 08:31 | 34.53260 | 30.13153 | 40938 ft | 492 kts | 160° |
| 2026-05-04 08:33 | 34.28611 | 30.27456 | 40949 ft | 491 kts | 160° |
| 2026-05-04 08:35 | 34.03923 | 30.41688 | 40976 ft | 491 kts | 160° |
| 2026-05-04 08:35 | 33.97812 | 30.45196 | 40971 ft | 489 kts | 160° |
| 2026-05-04 08:37 | 33.76318 | 30.57493 | 40977 ft | 488 kts | 161° |
| 2026-05-04 08:38 | 33.70173 | 30.60995 | 40987 ft | 488 kts | 161° |
| 2026-05-04 08:38 | 33.64015 | 30.64500 | 40983 ft | 488 kts | 161° |
| 2026-05-04 08:40 | 33.39459 | 30.78420 | 41001 ft | 488 kts | 161° |
| 2026-05-04 08:41 | 33.33330 | 30.81881 | 40987 ft | 488 kts | 162° |
| 2026-05-04 08:41 | 33.27194 | 30.85340 | 41008 ft | 488 kts | 162° |
| 2026-05-04 08:42 | 33.21051 | 30.88798 | 41011 ft | 487 kts | 162° |
| 2026-05-04 08:42 | 33.14920 | 30.92245 | 41018 ft | 487 kts | 162° |
| 2026-05-04 08:43 | 33.08641 | 30.95019 | 40964 ft | 465 kts | 181° |
| 2026-05-04 08:43 | 33.02224 | 30.95848 | 40990 ft | 463 kts | 182° |
| 2026-05-04 08:44 | 32.95821 | 30.96594 | 41025 ft | 461 kts | 183° |
| 2026-05-04 08:46 | 32.70427 | 30.99428 | 41043 ft | 457 kts | 184° |
| 2026-05-04 08:46 | 32.64093 | 31.00132 | 41043 ft | 457 kts | 184° |
| 2026-05-04 08:47 | 32.57765 | 31.00836 | 41041 ft | 456 kts | 184° |
| 2026-05-04 08:47 | 32.51441 | 31.01536 | 41054 ft | 455 kts | 184° |
| 2026-05-04 08:48 | 32.45128 | 31.02235 | 41059 ft | 455 kts | 184° |
| 2026-05-04 08:48 | 32.38823 | 31.02933 | 41059 ft | 456 kts | 184° |
| 2026-05-04 08:49 | 32.32553 | 31.03626 | 41057 ft | 454 kts | 184° |
| 2026-05-04 08:50 | 32.11605 | 31.05932 | 41048 ft | 454 kts | 184° |
| 2026-05-04 08:51 | 32.05316 | 31.06622 | 41076 ft | 453 kts | 184° |
| 2026-05-04 08:51 | 31.99067 | 31.07297 | 41078 ft | 453 kts | 185° |
| 2026-05-04 08:52 | 31.92749 | 31.07978 | 41081 ft | 453 kts | 185° |
| 2026-05-04 08:52 | 31.86533 | 31.08647 | 41080 ft | 453 kts | 185° |
| 2026-05-04 08:54 | 31.61497 | 31.11338 | 35978 ft | 444 kts | 186° |
| 2026-05-04 08:55 | 31.58438 | 31.11667 | 35078 ft | 437 kts | 187° |
| 2026-05-04 08:55 | 31.55386 | 31.11987 | 34279 ft | 446 kts | 187° |
| 2026-05-04 08:55 | 31.52245 | 31.12434 | 33184 ft | 463 kts | 182° |
| 2026-05-04 08:55 | 31.49046 | 31.13071 | 31981 ft | 466 kts | 183° |
| 2026-05-04 08:57 | 31.26214 | 31.17259 | 24431 ft | 477 kts | 181° |
| 2026-05-04 09:01 | 30.84067 | 31.25093 | 12144 ft | 407 kts | 176° |
| 2026-05-04 09:01 | 30.81399 | 31.25591 | 11890 ft | 376 kts | 176° |
| 2026-05-04 09:01 | 30.78912 | 31.26055 | 11679 ft | 346 kts | 177° |
| 2026-05-04 09:01 | 30.76609 | 31.26480 | 11466 ft | 322 kts | 177° |
| 2026-05-04 09:02 | 30.74474 | 31.26874 | 11252 ft | 302 kts | 178° |
| 2026-05-04 09:02 | 30.72460 | 31.27245 | 11060 ft | 283 kts | 178° |
| 2026-05-04 09:02 | 30.70550 | 31.27596 | 10915 ft | 275 kts | 178° |
| 2026-05-04 09:02 | 30.68621 | 31.27947 | 10733 ft | 288 kts | 177° |
| 2026-05-04 09:03 | 30.66619 | 31.28315 | 10572 ft | 293 kts | 176° |
| 2026-05-04 09:03 | 30.64604 | 31.28685 | 10403 ft | 295 kts | 176° |
| 2026-05-04 09:03 | 30.62566 | 31.29061 | 10258 ft | 295 kts | 176° |
| 2026-05-04 09:03 | 30.60547 | 31.29433 | 10040 ft | 293 kts | 176° |
| 2026-05-04 09:04 | 30.58539 | 31.29802 | 9663 ft | 291 kts | 176° |
| 2026-05-04 09:04 | 30.56554 | 31.30168 | 9288 ft | 288 kts | 176° |
| 2026-05-04 09:04 | 30.54580 | 31.30531 | 8951 ft | 285 kts | 176° |
| 2026-05-04 09:04 | 30.52601 | 31.30895 | 8622 ft | 284 kts | 175° |
| 2026-05-04 09:05 | 30.50657 | 31.31252 | 8301 ft | 283 kts | 175° |
| 2026-05-04 09:05 | 30.48717 | 31.31609 | 7974 ft | 280 kts | 175° |
| 2026-05-04 09:05 | 30.46910 | 31.32130 | 7643 ft | 283 kts | 158° |
| 2026-05-04 09:05 | 30.45353 | 31.33532 | 7277 ft | 286 kts | 129° |
| 2026-05-04 09:06 | 30.44500 | 31.35601 | 6956 ft | 286 kts | 102° |
| 2026-05-04 09:07 | 30.41036 | 31.50909 | 5155 ft | 279 kts | 109° |
| 2026-05-04 09:08 | 30.40372 | 31.53041 | 4976 ft | 273 kts | 110° |
| 2026-05-04 09:08 | 30.39751 | 31.55035 | 4892 ft | 253 kts | 110° |
| 2026-05-04 09:08 | 30.39185 | 31.56859 | 4813 ft | 234 kts | 109° |
| 2026-05-04 09:08 | 30.38660 | 31.58571 | 4741 ft | 216 kts | 109° |
| 2026-05-04 09:09 | 30.38175 | 31.60157 | 4679 ft | 205 kts | 109° |
| 2026-05-04 09:09 | 30.37664 | 31.61733 | 4692 ft | 214 kts | 115° |
| 2026-05-04 09:09 | 30.36738 | 31.63059 | 4666 ft | 213 kts | 151° |
| 2026-05-04 09:09 | 30.35425 | 31.63855 | 4703 ft | 214 kts | 159° |
| 2026-05-04 09:10 | 30.34074 | 31.64580 | 4686 ft | 214 kts | 159° |
| 2026-05-04 09:10 | 30.32720 | 31.65289 | 4620 ft | 214 kts | 159° |
| 2026-05-04 09:10 | 30.31363 | 31.65946 | 4518 ft | 211 kts | 169° |
| 2026-05-04 09:10 | 30.29973 | 31.66247 | 4426 ft | 218 kts | 178° |
| 2026-05-04 09:11 | 30.28431 | 31.66242 | 4371 ft | 222 kts | 198° |
| 2026-05-04 09:11 | 30.27160 | 31.65472 | 4339 ft | 197 kts | 227° |
| 2026-05-04 09:11 | 30.26292 | 31.64369 | 4196 ft | 186 kts | 234° |
| 2026-05-04 09:11 | 30.25471 | 31.63242 | 3934 ft | 186 kts | 234° |
| 2026-05-04 09:12 | 30.24649 | 31.62115 | 3778 ft | 179 kts | 234° |
| 2026-05-04 09:12 | 30.23866 | 31.61049 | 3731 ft | 167 kts | 235° |
| 2026-05-04 09:14 | 30.20388 | 31.56331 | 3137 ft | 115 kts | 236° |
| 2026-05-04 09:38 | 30.20253 | 31.56146 | 3108 ft | 115 kts | 236° |
| 2026-05-04 09:38 | 30.20222 | 31.56105 | 3101 ft | 115 kts | 236° |
| 2026-05-04 10:14 | 30.19766 | 31.55487 | 2959 ft | 115 kts | 235° |
| 2026-05-04 10:16 | 30.16151 | 31.50671 | 1929 ft | 112 kts | 236° |
| 2026-05-04 10:16 | 30.15671 | 31.49967 | 1719 ft | 111 kts | 238° |
| 2026-05-04 10:16 | 30.15196 | 31.49268 | 1499 ft | 109 kts | 237° |
| 2026-05-04 10:16 | 30.14710 | 31.48587 | 1264 ft | 111 kts | 235° |
| 2026-05-04 10:17 | 30.14194 | 31.47916 | 1087 ft | 112 kts | 234° |
| 2026-05-04 10:17 | 30.13677 | 31.47241 | 912 ft | 112 kts | 235° |
| 2026-05-04 10:19 | 30.10995 | 31.43603 | 376 ft | 33 kts | 229° |
| 2026-05-04 10:19 | 30.10895 | 31.43415 | 377 ft | 38 kts | 248° |
| 2026-05-04 10:19 | 30.10832 | 31.43186 | 377 ft | 28 kts | 255° |
| 2026-05-04 10:19 | 30.10746 | 31.42975 | 377 ft | 31 kts | 229° |
| 2026-05-04 10:20 | 30.10600 | 31.42778 | 377 ft | 34 kts | 230° |
| 2026-05-04 10:20 | 30.10435 | 31.42562 | 377 ft | 38 kts | 230° |
| 2026-05-04 10:20 | 30.10255 | 31.42325 | 377 ft | 42 kts | 229° |
| 2026-05-04 10:20 | 30.10074 | 31.42079 | 377 ft | 35 kts | 229° |
| 2026-05-04 10:21 | 30.09902 | 31.41853 | 377 ft | 38 kts | 234° |
| 2026-05-04 10:21 | 30.09921 | 31.41662 | 377 ft | 29 kts | 281° |
| 2026-05-04 10:21 | 30.09883 | 31.41420 | 377 ft | 33 kts | 259° |
| 2026-05-04 10:21 | 30.09853 | 31.41240 | 377 ft | 36 kts | 259° |
| 2026-05-04 10:22 | 30.09852 | 31.41232 | 377 ft | 36 kts | 259° |